82OK weather

St John Sapulpa Hospital Heliport
Sapulpa, Oklahoma, United States

Public forecast

Using degrees Fahrenheit for public forecast. Weather courtesy of forecast.io.

METAR (pilot weather report)

Closest report is Richard Lloyd Jones Jr Airport, 5.7 nm (10.6 km) ENE. Retrieved 2019/04/22 20:53 UTC (41 minutes ago):

KRVS 222053Z 21006KT 10SM OVC030 23/16 A3001 RMK AO2 SLP166 T02330161 58009

TAF (pilot weather forecast)

Closest forecast is Richard Lloyd Jones Jr Airport, 5.7 nm (10.6 km) ENE. Retrieved 2019/04/22 18:22 UTC (3 hours ago):

TAF KRVS 221720Z 2218/2318 20009KT P6SM OVC025 FM222100 20010KT P6SM BKN035 PROB30 2304/2310 5SM -TSRA BR BKN025CB FM231000 01006KT P6SM BKN025 TEMPO 2310/2314 4SM TSRA OVC015CB FM231400 01005KT 5SM -RA BKN025